Time;durP1;ratioP1;P1;durP2;ratioP2;P2;SDS_P1;SDS_P2;PMS_P1;PMS_P2;Temp;Humidity;BMP_temperature;BMP_pressure;BME280_temperature;BME280_humidity;BME280_pressure;Samples;Min_cycle;Max_cycle;Signal;HPM_P1;HPM_P2
2022/08/14 00:00:46;;;;;;;5.57;2.40;;;23.90;65.90;;;;;;5070844;28;20052;-63
2022/08/14 00:03:23;;;;;;;3.78;2.20;;;23.80;66.40;;;;;;5070904;28;20524;-63
2022/08/14 00:05:49;;;;;;;5.82;2.38;;;23.80;67.00;;;;;;5070856;28;20024;-63
2022/08/14 00:08:15;;;;;;;4.63;2.20;;;23.70;67.50;;;;;;5070866;28;20032;-63
2022/08/14 00:10:41;;;;;;;9.13;2.80;;;23.60;67.80;;;;;;5070890;28;20020;-64
2022/08/14 00:13:08;;;;;;;7.57;2.33;;;23.70;68.20;;;;;;5074057;28;20037;-64
2022/08/14 00:15:37;;;;;;;6.05;2.35;;;23.70;67.10;;;;;;5074510;28;20051;-63
2022/08/14 00:18:04;;;;;;;7.30;2.75;;;23.70;67.90;;;;;;5073228;28;20056;-63
2022/08/14 00:20:33;;;;;;;6.80;2.78;;;23.60;69.00;;;;;;5074195;28;20530;-63
2022/08/14 00:22:59;;;;;;;3.60;2.35;;;23.60;68.90;;;;;;5074263;28;20033;-63
2022/08/14 00:25:26;;;;;;;6.07;2.20;;;23.40;69.40;;;;;;5074121;28;20067;-64
2022/08/14 00:27:52;;;;;;;3.40;2.33;;;23.40;69.90;;;;;;5074395;28;20111;-63
2022/08/14 00:30:18;;;;;;;7.35;2.60;;;23.40;68.80;;;;;;5073234;28;20282;-64
2022/08/14 00:32:45;;;;;;;6.10;2.80;;;23.40;69.30;;;;;;5073983;28;20029;-63
2022/08/14 00:35:11;;;;;;;8.02;2.55;;;23.40;69.80;;;;;;5074113;28;20056;-64
2022/08/14 00:37:45;;;;;;;13.23;2.60;;;23.20;70.70;;;;;;5074262;28;20473;-64
2022/08/14 00:40:19;;;;;;;4.25;2.45;;;23.10;71.20;;;;;;5074283;28;20025;-64
2022/08/14 00:42:45;;;;;;;10.45;2.60;;;22.90;72.30;;;;;;5074161;28;20035;-64
2022/08/14 00:45:12;;;;;;;5.35;2.42;;;22.90;73.10;;;;;;5073884;28;20024;-64
2022/08/14 00:47:40;;;;;;;4.20;2.30;;;22.70;74.40;;;;;;5074452;28;20033;-64
2022/08/14 00:50:08;;;;;;;4.72;2.55;;;22.60;74.30;;;;;;5072811;28;20024;-64
2022/08/14 00:52:34;;;;;;;9.15;2.30;;;22.60;75.10;;;;;;5073679;28;20520;-64
2022/08/14 00:55:00;;;;;;;3.90;2.83;;;22.50;75.70;;;;;;5074474;28;20017;-64
2022/08/14 00:57:29;;;;;;;6.63;2.78;;;22.40;76.30;;;;;;5073906;28;20433;-63
2022/08/14 00:59:56;;;;;;;7.47;2.90;;;22.30;76.90;;;;;;5073975;28;20040;-64
2022/08/14 01:02:23;;;;;;;5.60;2.95;;;22.20;77.90;;;;;;5073498;28;20493;-63
2022/08/14 01:04:59;;;;;;;4.35;2.85;;;22.20;78.50;;;;;;5073565;28;20020;-64
2022/08/14 01:07:28;;;;;;;7.72;2.83;;;22.20;79.70;;;;;;5073288;28;20036;-64
2022/08/14 01:09:57;;;;;;;5.88;2.90;;;22.00;80.20;;;;;;5073772;28;20448;-64
2022/08/14 01:12:25;;;;;;;6.22;2.90;;;22.00;81.10;;;;;;5073799;28;20060;-64
2022/08/14 01:14:54;;;;;;;4.75;2.60;;;21.80;83.00;;;;;;5073724;28;20077;-64
2022/08/14 01:17:21;;;;;;;7.45;2.97;;;21.80;84.10;;;;;;5073815;28;20423;-64
2022/08/14 01:22:32;;;;;;;5.30;2.83;;;21.90;86.40;;;;;;5073148;28;20039;-62
2022/08/14 01:24:58;;;;;;;4.50;2.88;;;22.00;87.60;;;;;;5072870;28;20422;-62
2022/08/14 01:27:24;;;;;;;5.47;2.97;;;21.80;88.90;;;;;;5073133;28;20059;-63
2022/08/14 01:29:53;;;;;;;3.17;2.88;;;21.80;90.10;;;;;;5073518;28;20104;-62
2022/08/14 01:32:20;;;;;;;8.27;3.58;;;21.70;90.80;;;;;;5073000;28;20111;-62
2022/08/14 01:34:53;;;;;;;5.97;2.97;;;21.50;91.60;;;;;;5072869;28;20062;-63
2022/08/14 01:37:24;;;;;;;8.52;2.97;;;21.40;92.20;;;;;;5072934;28;20036;-62
2022/08/14 01:39:53;;;;;;;3.63;2.65;;;21.10;93.60;;;;;;5073210;28;20160;-63
2022/08/14 01:42:19;;;;;;;4.97;3.10;;;21.10;94.40;;;;;;5073016;28;20039;-63
2022/08/14 01:44:50;;;;;;;3.05;2.85;;;21.00;95.00;;;;;;5072797;28;20111;-62
2022/08/14 01:47:17;;;;;;;4.72;3.05;;;21.00;95.60;;;;;;5072904;28;20029;-63
2022/08/14 01:49:43;;;;;;;5.40;3.00;;;20.90;96.30;;;;;;5073005;28;20465;-63
2022/08/14 01:52:09;;;;;;;5.15;2.90;;;20.90;96.70;;;;;;5072627;28;20037;-63
2022/08/14 01:54:35;;;;;;;6.97;3.42;;;20.80;97.80;;;;;;5072873;28;20024;-62
2022/08/14 01:57:01;;;;;;;7.28;3.05;;;20.80;97.60;;;;;;5072737;28;20039;-62
2022/08/14 01:59:31;;;;;;;4.90;2.97;;;20.80;97.80;;;;;;5072579;28;20020;-63
2022/08/14 02:02:02;;;;;;;3.55;2.78;;;20.70;98.50;;;;;;5072613;28;20024;-63
2022/08/14 02:04:33;;;;;;;5.53;3.08;;;20.70;98.90;;;;;;5072975;28;20037;-63
2022/08/14 02:07:01;;;;;;;4.72;3.10;;;20.70;98.70;;;;;;5072318;28;20062;-63
2022/08/14 02:09:26;;;;;;;5.90;3.30;;;20.70;98.90;;;;;;5072709;28;20073;-63
2022/08/14 02:11:52;;;;;;;9.27;3.33;;;20.70;99.30;;;;;;5072338;28;20474;-63
2022/08/14 02:14:18;;;;;;;8.68;3.00;;;20.70;99.50;;;;;;5072114;28;20032;-62
2022/08/14 02:16:49;;;;;;;9.68;3.30;;;20.70;99.60;;;;;;5072314;28;20025;-63
2022/08/14 02:19:17;;;;;;;5.53;2.90;;;20.60;99.60;;;;;;5072512;28;20032;-63
2022/08/14 02:21:45;;;;;;;5.57;3.35;;;20.70;99.90;;;;;;5072384;28;20029;-63
2022/08/14 02:24:12;;;;;;;3.70;2.92;;;20.60;99.90;;;;;;5072141;28;20032;-63
2022/08/14 02:26:39;;;;;;;5.25;3.50;;;20.50;99.90;;;;;;5072230;28;20435;-63
2022/08/14 02:29:10;;;;;;;6.47;3.03;;;20.40;99.90;;;;;;5072829;28;20047;-63
2022/08/14 02:31:39;;;;;;;9.23;3.22;;;20.30;99.90;;;;;;5072005;28;20025;-62
2022/08/14 02:34:09;;;;;;;5.55;3.10;;;20.40;99.90;;;;;;5071662;28;20028;-63
2022/08/14 02:36:39;;;;;;;3.70;3.30;;;20.40;99.90;;;;;;5072071;28;20397;-62
2022/08/14 02:39:08;;;;;;;3.50;3.20;;;20.50;99.90;;;;;;5072576;28;20040;-62
2022/08/14 02:41:35;;;;;;;5.00;3.53;;;20.20;99.90;;;;;;5071782;28;20023;-63
2022/08/14 02:44:02;;;;;;;7.15;3.40;;;20.10;99.90;;;;;;5072150;28;20396;-63
2022/08/14 02:46:31;;;;;;;4.70;3.20;;;20.10;99.90;;;;;;5053927;28;20032;-63
2022/08/14 02:48:58;;;;;;;8.20;3.10;;;20.00;99.90;;;;;;5072141;28;20037;-63
2022/08/14 02:51:24;;;;;;;5.00;3.10;;;20.00;99.90;;;;;;5072090;28;20046;-63
2022/08/14 02:53:53;;;;;;;8.57;3.58;;;19.90;99.90;;;;;;5072179;28;20035;-62
2022/08/14 02:56:18;;;;;;;4.05;2.97;;;20.00;99.90;;;;;;5070789;28;20116;-63
2022/08/14 02:58:47;;;;;;;6.28;2.95;;;19.80;99.90;;;;;;5072208;28;20055;-63
2022/08/14 03:01:14;;;;;;;4.97;3.15;;;19.70;99.90;;;;;;5071549;28;20044;-63
2022/08/14 03:03:41;;;;;;;4.00;2.88;;;19.80;99.90;;;;;;5071523;28;20075;-63
2022/08/14 03:06:08;;;;;;;3.72;2.88;;;19.70;99.90;;;;;;5071726;28;20513;-63
2022/08/14 03:08:36;;;;;;;3.40;3.05;;;19.80;99.90;;;;;;5071540;28;20028;-63
2022/08/14 03:11:08;;;;;;;2.72;2.50;;;19.90;99.90;;;;;;5071371;28;20489;-63
2022/08/14 03:13:35;;;;;;;4.63;2.90;;;20.00;99.90;;;;;;5071945;28;20040;-63
2022/08/14 03:16:05;;;;;;;5.75;3.10;;;20.00;99.90;;;;;;5071315;28;20025;-63
2022/08/14 03:18:31;;;;;;;8.35;2.33;;;20.00;99.90;;;;;;5071568;28;20131;-62
2022/08/14 03:21:04;;;;;;;4.53;2.53;;;20.00;99.90;;;;;;5071661;28;20104;-63
2022/08/14 03:23:32;;;;;;;;;;;20.10;99.90;;;;;;5072022;28;20033;-63
2022/08/14 03:25:58;;;;;;;5.60;2.88;;;20.10;99.90;;;;;;5071452;28;19904;-63
2022/08/14 03:28:25;;;;;;;4.13;2.60;;;20.20;99.90;;;;;;5071575;28;20045;-63
2022/08/14 03:30:51;;;;;;;5.22;3.00;;;20.30;99.90;;;;;;5071310;28;20051;-63
2022/08/14 03:33:18;;;;;;;4.03;2.65;;;20.40;99.90;;;;;;5070015;28;20575;-62
2022/08/14 03:35:44;;;;;;;4.78;2.60;;;20.30;99.90;;;;;;5070909;28;20017;-63
2022/08/14 03:38:11;;;;;;;2.75;2.50;;;20.40;99.90;;;;;;5071165;28;20029;-63
2022/08/14 03:40:39;;;;;;;6.65;2.75;;;20.40;99.90;;;;;;5071198;28;20025;-63
2022/08/14 03:43:09;;;;;;;12.15;2.67;;;20.40;99.90;;;;;;5071174;28;20024;-63
2022/08/14 03:45:36;;;;;;;5.85;2.72;;;20.20;99.90;;;;;;5070165;28;20028;-63
2022/08/14 03:48:20;;;;;;;4.03;3.10;;;20.30;99.90;;;;;;5074666;28;20044;-62
2022/08/14 03:50:47;;;;;;;7.72;3.05;;;20.40;99.90;;;;;;5075483;28;20025;-63
2022/08/14 03:53:13;;;;;;;3.78;2.55;;;20.40;99.90;;;;;;5074919;28;20036;-63
2022/08/14 03:55:40;;;;;;;8.00;2.88;;;20.10;99.90;;;;;;5075557;28;20033;-62
2022/08/14 03:58:07;;;;;;;4.05;2.60;;;20.00;99.90;;;;;;5075183;28;20029;-61
2022/08/14 04:00:35;;;;;;;3.80;2.83;;;19.80;99.90;;;;;;5075187;28;20045;-62
2022/08/14 04:03:03;;;;;;;7.03;2.70;;;19.70;99.90;;;;;;5075302;28;20041;-62
2022/08/14 04:05:29;;;;;;;4.32;2.80;;;19.70;99.90;;;;;;5073594;28;20020;-62
2022/08/14 04:07:54;;;;;;;9.52;2.95;;;19.70;99.90;;;;;;5075462;28;20081;-61
2022/08/14 04:10:20;;;;;;;7.72;2.50;;;19.80;99.90;;;;;;5075272;28;20229;-62
2022/08/14 04:12:46;;;;;;;7.75;2.92;;;19.80;99.90;;;;;;5075038;28;20028;-62
2022/08/14 04:15:15;;;;;;;2.90;2.50;;;19.80;99.90;;;;;;5074871;28;20105;-61
2022/08/14 04:17:42;;;;;;;4.60;2.70;;;19.60;99.90;;;;;;5074804;28;20020;-62
2022/08/14 04:20:08;;;;;;;3.65;2.70;;;19.60;99.90;;;;;;5075053;28;20029;-62
2022/08/14 04:22:35;;;;;;;5.40;2.78;;;19.60;99.90;;;;;;5074803;28;20029;-62
2022/08/14 04:25:01;;;;;;;3.80;2.63;;;19.50;99.90;;;;;;5074889;28;20099;-62
2022/08/14 04:27:28;;;;;;;4.43;2.90;;;19.60;99.90;;;;;;5075048;28;20020;-62
2022/08/14 04:29:56;;;;;;;7.88;2.42;;;19.70;99.90;;;;;;5075097;28;20105;-61
2022/08/14 04:32:25;;;;;;;5.95;2.70;;;19.60;99.90;;;;;;5074505;28;20509;-62
2022/08/14 04:34:51;;;;;;;7.05;3.10;;;19.50;99.90;;;;;;5074410;28;20381;-62
2022/08/14 04:45:43;;;;;;;8.30;3.00;;;19.30;99.90;;;;;;5074673;28;20063;-62
2022/08/14 04:48:13;;;;;;;9.88;2.97;;;19.20;99.90;;;;;;5075098;28;20036;-62
2022/08/14 04:50:45;;;;;;;4.75;2.80;;;19.40;99.90;;;;;;5074817;28;20036;-62
2022/08/14 04:53:24;;;;;;;5.97;2.92;;;19.60;99.90;;;;;;5074861;28;20393;-63
2022/08/14 04:55:51;;;;;;;8.32;2.65;;;19.50;99.90;;;;;;5074617;28;20020;-63
2022/08/14 04:58:23;;;;;;;3.30;2.60;;;19.30;99.90;;;;;;5074571;28;20028;-62
2022/08/14 05:00:50;;;;;;;7.05;2.78;;;19.10;99.90;;;;;;5074628;28;20049;-62
2022/08/14 05:03:28;;;;;;;8.23;3.05;;;19.20;99.90;;;;;;5073996;28;20028;-62
2022/08/14 05:05:56;;;;;;;4.70;2.58;;;19.10;99.90;;;;;;5074121;28;20462;-62
2022/08/14 05:08:22;;;;;;;8.88;2.97;;;19.00;99.90;;;;;;5074159;28;20032;-62
2022/08/14 05:10:51;;;;;;;4.75;2.97;;;19.20;99.90;;;;;;5074375;28;20561;-63
2022/08/14 05:13:18;;;;;;;3.60;2.63;;;19.30;99.90;;;;;;5074124;28;20127;-63
2022/08/14 05:15:45;;;;;;;6.75;2.67;;;19.40;99.90;;;;;;5073883;28;20029;-62
2022/08/14 05:18:13;;;;;;;8.80;3.03;;;19.40;99.90;;;;;;5074182;28;20382;-62
2022/08/14 05:20:44;;;;;;;8.95;3.20;;;19.40;99.90;;;;;;5072512;28;20025;-62
2022/08/14 05:23:15;;;;;;;3.38;2.80;;;19.40;99.90;;;;;;5073718;28;20029;-63
2022/08/14 05:25:41;;;;;;;6.88;2.75;;;19.40;99.90;;;;;;5073767;28;20036;-62
2022/08/14 05:28:18;;;;;;;5.70;2.85;;;19.40;99.90;;;;;;5073959;28;20438;-63
2022/08/14 05:30:49;;;;;;;5.82;2.95;;;19.40;99.90;;;;;;5073892;28;20473;-62
2022/08/14 05:33:17;;;;;;;13.15;3.50;;;19.50;99.90;;;;;;5073520;28;20394;-62
2022/08/14 05:35:44;;;;;;;7.75;2.70;;;19.60;99.90;;;;;;5073632;28;20114;-62
2022/08/14 05:38:15;;;;;;;4.70;2.83;;;19.60;99.90;;;;;;5073772;28;20020;-62
2022/08/14 05:40:45;;;;;;;7.25;3.17;;;19.90;99.90;;;;;;5073456;28;20017;-63
2022/08/14 05:43:12;;;;;;;5.68;3.10;;;20.10;99.90;;;;;;5073125;28;20036;-63
2022/08/14 05:45:37;;;;;;;8.40;2.83;;;20.10;99.90;;;;;;5073219;28;20027;-62
2022/08/14 05:48:04;;;;;;;5.93;2.97;;;20.30;99.90;;;;;;5073119;28;20467;-63
2022/08/14 05:50:32;;;;;;;7.95;3.08;;;20.20;99.90;;;;;;5073704;28;20423;-63
2022/08/14 05:52:58;;;;;;;5.68;2.53;;;20.30;99.90;;;;;;5073481;28;20024;-62
2022/08/14 05:55:24;;;;;;;9.43;3.08;;;20.40;99.90;;;;;;5072564;28;20435;-62
2022/08/14 05:57:59;;;;;;;7.18;2.90;;;20.50;99.90;;;;;;5073081;28;20054;-63
2022/08/14 06:00:34;;;;;;;6.22;2.63;;;20.60;99.90;;;;;;5072536;28;20589;-63
2022/08/14 06:03:01;;;;;;;9.75;2.80;;;20.80;99.90;;;;;;5072711;28;20091;-62
2022/08/14 06:05:27;;;;;;;13.23;3.00;;;20.90;99.90;;;;;;5072252;28;20032;-62
2022/08/14 06:07:53;;;;;;;11.73;2.72;;;21.00;99.90;;;;;;5072608;28;20051;-62
2022/08/14 06:10:19;;;;;;;9.07;2.83;;;21.20;99.90;;;;;;5072112;28;20111;-64
2022/08/14 06:12:44;;;;;;;5.80;2.53;;;21.30;99.90;;;;;;5072468;28;20036;-63
2022/08/14 06:15:10;;;;;;;2.30;2.10;;;21.50;99.90;;;;;;5072577;28;20039;-63
2022/08/14 06:17:44;;;;;;;3.47;2.25;;;21.50;99.70;;;;;;5072962;28;20028;-61
2022/08/14 06:20:12;;;;;;;3.92;2.20;;;21.60;98.50;;;;;;5072473;28;20051;-62
2022/08/14 06:22:38;;;;;;;2.50;2.30;;;21.90;99.70;;;;;;5072160;28;20516;-61
2022/08/14 06:25:04;;;;;;;4.78;2.10;;;22.10;97.20;;;;;;5072240;28;20028;-61
2022/08/14 06:27:41;;;;;;;3.35;2.20;;;22.20;98.20;;;;;;5071944;28;20032;-61
2022/08/14 06:30:10;;;;;;;5.82;2.50;;;22.60;99.00;;;;;;5070944;28;20039;-62
2022/08/14 06:32:36;;;;;;;3.22;2.17;;;22.90;97.20;;;;;;5071988;28;20072;-61
2022/08/14 06:35:05;;;;;;;4.47;2.20;;;23.20;96.80;;;;;;5071853;28;20107;-61
2022/08/14 06:37:50;;;;;;;4.18;1.83;;;23.50;95.40;;;;;;5071548;28;20055;-62
2022/08/14 06:40:21;;;;;;;5.68;2.65;;;23.40;95.00;;;;;;5072330;28;20400;-61
2022/08/14 06:42:46;;;;;;;4.55;2.60;;;23.40;95.90;;;;;;5072663;28;20024;-61
2022/08/14 06:45:12;;;;;;;2.80;2.60;;;23.30;94.90;;;;;;5072003;28;20115;-62
2022/08/14 06:47:40;;;;;;;5.45;2.70;;;23.30;94.40;;;;;;5071986;28;20048;-61
2022/08/14 06:50:09;;;;;;;7.18;2.60;;;23.40;94.90;;;;;;5071849;28;20025;-61
2022/08/14 06:52:35;;;;;;;4.60;2.60;;;23.50;94.90;;;;;;5071358;28;20481;-61
2022/08/14 06:55:01;;;;;;;2.67;2.47;;;23.60;94.90;;;;;;5070394;28;20020;-61
2022/08/14 06:57:37;;;;;;;2.97;2.42;;;23.60;93.40;;;;;;5072069;28;20498;-61
2022/08/14 07:00:05;;;;;;;6.47;2.55;;;23.50;91.70;;;;;;5071966;28;20508;-62
2022/08/14 07:07:59;;;;;;;3.53;3.10;;;23.90;94.00;;;;;;5071740;28;20555;-62
2022/08/14 07:10:25;;;;;;;7.43;3.17;;;24.20;94.10;;;;;;5071277;28;20025;-62
2022/08/14 07:12:50;;;;;;;6.13;2.80;;;24.60;93.50;;;;;;5071332;28;20032;-62
2022/08/14 07:15:16;;;;;;;4.65;2.30;;;25.10;91.20;;;;;;5071563;28;20651;-64
2022/08/14 07:17:46;;;;;;;3.60;2.50;;;26.20;84.40;;;;;;5071938;28;20086;-63
2022/08/14 07:20:12;;;;;;;5.53;2.50;;;28.20;76.50;;;;;;5072156;28;20069;-64
2022/08/14 07:22:38;;;;;;;7.18;2.50;;;30.20;68.30;;;;;;5070862;28;20037;-63
2022/08/14 07:25:04;;;;;;;13.18;2.40;;;31.60;62.80;;;;;;5071622;28;20031;-63
2022/08/14 07:27:30;;;;;;;12.50;2.35;;;32.50;59.60;;;;;;5071053;28;20036;-65
2022/08/14 07:29:56;;;;;;;5.90;1.90;;;33.00;58.20;;;;;;5071109;28;20151;-65
2022/08/14 07:32:21;;;;;;;11.80;2.20;;;34.20;56.00;;;;;;5071477;28;20553;-65
2022/08/14 07:34:48;;;;;;;10.98;2.33;;;34.50;55.00;;;;;;5071091;28;20107;-65
2022/08/14 07:37:13;;;;;;;10.35;2.42;;;34.50;54.60;;;;;;5070963;28;20024;-66
2022/08/14 07:39:39;;;;;;;5.43;1.98;;;34.50;53.80;;;;;;5071416;28;20047;-66
2022/08/14 07:42:05;;;;;;;5.95;2.28;;;33.80;53.80;;;;;;5070827;28;20032;-66
2022/08/14 07:44:30;;;;;;;5.05;1.85;;;34.30;53.40;;;;;;5071257;28;20036;-65
2022/08/14 07:46:56;;;;;;;11.20;2.13;;;34.40;52.80;;;;;;5070495;28;20035;-66
2022/08/14 07:49:23;;;;;;;3.83;2.00;;;34.80;53.30;;;;;;5071064;28;20086;-66
2022/08/14 07:51:48;;;;;;;5.13;2.00;;;34.40;52.80;;;;;;5070980;28;20099;-65
2022/08/14 07:54:15;;;;;;;2.80;2.28;;;35.00;52.90;;;;;;5070840;28;20135;-66
2022/08/14 07:56:41;;;;;;;7.28;1.80;;;35.80;51.40;;;;;;5071213;28;20025;-66
2022/08/14 07:59:06;;;;;;;4.43;1.83;;;36.40;50.80;;;;;;5070047;28;20078;-65
2022/08/14 08:01:33;;;;;;;4.18;1.95;;;36.50;50.40;;;;;;5070629;28;20071;-66
2022/08/14 08:04:03;;;;;;;3.90;1.80;;;36.70;50.00;;;;;;5069383;28;20029;-66
2022/08/14 08:06:29;;;;;;;5.18;2.00;;;35.80;49.80;;;;;;5069555;28;20483;-66
2022/08/14 08:08:58;;;;;;;2.28;1.98;;;35.60;50.70;;;;;;5070791;28;20120;-65
2022/08/14 08:11:26;;;;;;;5.10;2.10;;;35.30;50.40;;;;;;5070654;28;20052;-65
2022/08/14 08:13:57;;;;;;;7.18;2.00;;;35.20;51.30;;;;;;5070698;28;20040;-64
2022/08/14 08:16:23;;;;;;;6.30;2.10;;;35.40;51.20;;;;;;5070723;28;20386;-65
2022/08/14 08:18:49;;;;;;;6.38;1.90;;;35.50;51.10;;;;;;5071015;28;20469;-66
2022/08/14 08:21:16;;;;;;;4.05;1.90;;;35.60;51.10;;;;;;5071062;28;20043;-65
2022/08/14 08:23:41;;;;;;;3.20;2.00;;;35.00;51.60;;;;;;5070765;28;20036;-65
2022/08/14 08:26:07;;;;;;;4.50;2.10;;;34.40;53.00;;;;;;5069423;28;20523;-65
2022/08/14 08:28:33;;;;;;;3.88;2.20;;;34.90;51.90;;;;;;5070392;28;20036;-69
2022/08/14 08:31:04;;;;;;;3.28;1.92;;;34.80;51.90;;;;;;5070384;28;20035;-66
2022/08/14 08:33:32;;;;;;;4.32;2.05;;;34.40;51.90;;;;;;5073198;28;20326;-65
2022/08/14 08:36:00;;;;;;;4.07;1.98;;;34.00;52.60;;;;;;5073826;28;20025;-65
2022/08/14 08:38:26;;;;;;;4.75;2.10;;;34.00;53.20;;;;;;5074243;28;20098;-65
2022/08/14 08:40:57;;;;;;;4.60;2.22;;;34.10;52.40;;;;;;5074015;28;20489;-65
2022/08/14 08:43:28;;;;;;;6.00;2.05;;;34.30;52.90;;;;;;5074291;28;20467;-65
2022/08/14 08:46:11;;;;;;;4.20;1.80;;;34.70;52.70;;;;;;5073833;28;20042;-65
2022/08/14 08:48:58;;;;;;;5.00;2.20;;;34.40;51.50;;;;;;5074100;28;20108;-64
2022/08/14 08:51:29;;;;;;;4.55;2.38;;;34.00;52.10;;;;;;5074041;28;20024;-65
2022/08/14 08:53:55;;;;;;;2.35;1.98;;;34.40;52.70;;;;;;5073723;28;20162;-65
2022/08/14 08:56:36;;;;;;;1.90;1.75;;;35.10;50.50;;;;;;5073964;28;20565;-65
2022/08/14 08:59:02;;;;;;;2.83;1.70;;;35.80;49.10;;;;;;5073836;28;20035;-65
2022/08/14 09:01:32;;;;;;;4.13;1.92;;;36.40;48.60;;;;;;5073677;28;20051;-65
2022/08/14 09:04:02;;;;;;;6.32;1.60;;;36.30;48.90;;;;;;5073631;28;20505;-65
2022/08/14 09:06:28;;;;;;;1.98;1.50;;;36.00;47.50;;;;;;5073423;28;20693;-65
2022/08/14 09:08:53;;;;;;;3.35;1.65;;;35.80;47.00;;;;;;5072544;28;20044;-65
2022/08/14 09:11:19;;;;;;;5.28;1.75;;;35.20;48.40;;;;;;5072403;28;20071;-65
2022/08/14 09:13:44;;;;;;;6.45;1.50;;;34.90;48.40;;;;;;5073023;28;20434;-64
2022/08/14 09:16:10;;;;;;;4.32;1.80;;;34.90;49.10;;;;;;5073323;28;20024;-64
2022/08/14 09:18:39;;;;;;;3.08;1.55;;;35.50;48.80;;;;;;5073417;28;20027;-65
2022/08/14 09:21:06;;;;;;;4.70;1.67;;;35.70;49.20;;;;;;5072959;28;20025;-65
2022/08/14 09:23:32;;;;;;;2.55;1.58;;;35.40;47.70;;;;;;5073428;28;20059;-65
2022/08/14 09:25:58;;;;;;;3.67;1.40;;;34.60;48.60;;;;;;5072036;28;20481;-64
2022/08/14 09:28:23;;;;;;;5.07;1.60;;;34.10;49.70;;;;;;5073225;28;20025;-65
2022/08/14 09:30:53;;;;;;;5.30;1.70;;;33.50;50.70;;;;;;5071839;28;20021;-65
2022/08/14 09:33:37;;;;;;;3.58;1.55;;;33.50;51.00;;;;;;5072808;28;20033;-65
2022/08/14 09:36:25;;;;;;;3.17;1.55;;;34.10;50.30;;;;;;5071735;28;20032;-65
2022/08/14 09:39:00;;;;;;;2.58;1.52;;;34.60;49.70;;;;;;5073481;28;20053;-64
2022/08/14 09:42:17;;;;;;;3.67;1.40;;;34.70;50.20;;;;;;5072938;28;20397;-65
2022/08/14 09:45:04;;;;;;;7.82;1.80;;;34.20;46.60;;;;;;5053823;28;20049;-65
2022/08/14 09:47:48;;;;;;;4.60;1.50;;;34.60;47.90;;;;;;5071207;28;20040;-64
2022/08/14 09:50:32;;;;;;;1.35;1.25;;;34.30;47.70;;;;;;5072643;28;20024;-65
2022/08/14 09:53:04;;;;;;;1.77;1.27;;;34.10;48.10;;;;;;5072764;28;20064;-65
2022/08/14 09:55:32;;;;;;;2.15;1.42;;;33.50;48.60;;;;;;5071172;28;20024;-65
2022/08/14 09:58:14;;;;;;;3.55;1.45;;;33.40;48.20;;;;;;5072929;28;20040;-65
2022/08/14 10:01:07;;;;;;;2.13;1.20;;;33.30;47.80;;;;;;5072320;28;20068;-65
2022/08/14 10:03:35;;;;;;;2.78;1.30;;;33.00;47.40;;;;;;5072561;28;20052;-65
2022/08/14 10:06:31;;;;;;;1.52;1.25;;;32.70;48.40;;;;;;5072068;28;20036;-65
2022/08/14 10:09:04;;;;;;;2.38;1.10;;;32.50;47.90;;;;;;5063874;28;20036;-65
2022/08/14 10:11:36;;;;;;;1.38;1.15;;;32.30;49.30;;;;;;5072210;28;20036;-65
2022/08/14 10:14:16;;;;;;;1.38;1.20;;;32.00;49.70;;;;;;5072126;28;20036;-64
2022/08/14 10:16:51;;;;;;;2.55;1.38;;;32.20;49.60;;;;;;5072401;28;20024;-65
2022/08/14 10:19:18;;;;;;;2.30;1.55;;;32.30;49.20;;;;;;5072731;28;20032;-65
2022/08/14 10:22:00;;;;;;;5.30;1.38;;;33.20;48.80;;;;;;5071976;28;20100;-64
2022/08/14 10:24:32;;;;;;;3.90;1.20;;;33.70;48.20;;;;;;5072425;28;20116;-65
2022/08/14 10:27:01;;;;;;;2.28;1.08;;;34.10;47.20;;;;;;5072122;28;20032;-65
2022/08/14 10:29:36;;;;;;;3.72;1.20;;;34.60;46.80;;;;;;5072185;28;20038;-65
2022/08/14 10:32:03;;;;;;;2.13;0.80;;;34.50;46.20;;;;;;5072003;28;20029;-65
2022/08/14 10:34:33;;;;;;;1.48;1.10;;;34.70;45.40;;;;;;5070526;28;20565;-65
2022/08/14 10:37:18;;;;;;;5.32;1.15;;;35.40;43.80;;;;;;5071777;28;20389;-65
2022/08/14 10:39:57;;;;;;;3.13;1.00;;;36.10;43.40;;;;;;5072426;28;20082;-64
2022/08/14 10:42:33;;;;;;;4.60;1.35;;;36.60;43.20;;;;;;5072114;28;20091;-65
2022/08/14 10:44:58;;;;;;;5.45;1.10;;;37.00;42.90;;;;;;5070798;28;20035;-65
2022/08/14 10:47:34;;;;;;;2.78;1.05;;;36.90;43.60;;;;;;5071773;28;20028;-65
2022/08/14 10:50:00;;;;;;;3.95;0.90;;;37.70;41.00;;;;;;5071730;28;20060;-65
2022/08/14 10:52:30;;;;;;;3.67;1.20;;;37.70;40.30;;;;;;5071667;28;20028;-66
2022/08/14 10:55:14;;;;;;;2.58;0.80;;;38.50;40.00;;;;;;5071714;28;20031;-66
2022/08/14 10:57:51;;;;;;;1.85;1.15;;;39.00;39.40;;;;;;5071810;28;20393;-65
2022/08/14 11:00:28;;;;;;;2.00;1.05;;;38.30;40.00;;;;;;5071487;28;20147;-65
2022/08/14 11:03:00;;;;;;;2.40;0.90;;;37.80;39.40;;;;;;5071371;28;20103;-65
2022/08/14 11:05:38;;;;;;;2.42;0.90;;;37.30;39.00;;;;;;5071422;28;20493;-65
2022/08/14 11:08:03;;;;;;;1.63;0.90;;;37.20;39.40;;;;;;5072167;28;20032;-65
2022/08/14 11:10:45;;;;;;;1.40;1.02;;;36.80;40.00;;;;;;5071653;28;20028;-65
2022/08/14 11:13:20;;;;;;;1.88;1.15;;;36.90;39.60;;;;;;5071124;28;20171;-65
2022/08/14 11:15:47;;;;;;;1.73;0.90;;;37.20;39.50;;;;;;5069783;28;20047;-66
2022/08/14 11:18:19;;;;;;;0.85;0.82;;;37.20;40.10;;;;;;5071518;28;20063;-66
2022/08/14 11:20:54;;;;;;;2.13;0.90;;;37.40;40.60;;;;;;5071123;28;20078;-65
2022/08/14 11:23:24;;;;;;;2.97;1.13;;;37.00;41.20;;;;;;5071328;28;20036;-65
2022/08/14 11:26:12;;;;;;;3.78;1.10;;;36.80;40.90;;;;;;5071067;28;20052;-65
2022/08/14 11:28:40;;;;;;;1.58;1.20;;;37.60;40.30;;;;;;5071374;28;20489;-65
2022/08/14 11:31:12;;;;;;;3.65;1.05;;;37.00;40.30;;;;;;5071354;28;20508;-65
2022/08/14 11:33:40;;;;;;;3.17;1.10;;;36.90;41.00;;;;;;5071105;28;20062;-65
2022/08/14 11:36:21;;;;;;;2.72;1.10;;;36.70;41.70;;;;;;5071299;28;20028;-65
2022/08/14 11:38:47;;;;;;;1.48;1.20;;;36.50;41.70;;;;;;5071516;28;20032;-65
2022/08/14 11:41:15;;;;;;;2.50;1.50;;;36.00;42.10;;;;;;5071310;28;20093;-65
2022/08/14 11:43:47;;;;;;;0.88;0.88;;;35.90;42.30;;;;;;5071575;28;20033;-65
2022/08/14 11:46:14;;;;;;;1.85;1.08;;;35.90;42.50;;;;;;5071302;28;20017;-66
2022/08/14 11:48:52;;;;;;;3.80;1.13;;;36.10;41.30;;;;;;5070004;28;20073;-65
2022/08/14 11:51:24;;;;;;;3.70;1.13;;;36.40;41.90;;;;;;5070716;28;20099;-65
2022/08/14 11:54:12;;;;;;;1.33;1.10;;;36.90;41.30;;;;;;5069486;28;20035;-65
2022/08/14 11:56:44;;;;;;;2.63;1.08;;;37.50;41.10;;;;;;5070900;28;20032;-65
2022/08/14 11:59:18;;;;;;;1.65;1.20;;;38.10;40.10;;;;;;5071698;28;20024;-65
2022/08/14 12:01:47;;;;;;;1.13;0.95;;;38.00;40.10;;;;;;5070722;28;20067;-65
2022/08/14 12:04:18;;;;;;;2.47;1.00;;;37.80;39.40;;;;;;5070598;28;20033;-65
2022/08/14 12:07:06;;;;;;;2.63;1.00;;;37.10;38.80;;;;;;5071340;28;20110;-65
2022/08/14 12:09:34;;;;;;;4.95;1.33;;;36.40;40.00;;;;;;5075082;28;20055;-65
2022/08/14 12:12:11;;;;;;;3.65;0.88;;;36.00;39.40;;;;;;5074860;28;20028;-65
2022/08/14 12:14:47;;;;;;;1.73;1.05;;;35.60;39.20;;;;;;5058531;28;20120;-65
2022/08/14 12:17:13;;;;;;;3.45;1.23;;;35.90;39.60;;;;;;5074893;28;20406;-65
2022/08/14 12:19:49;;;;;;;1.10;1.00;;;35.90;39.90;;;;;;5074987;28;20052;-65
2022/08/14 12:22:15;;;;;;;1.55;1.00;;;35.50;40.70;;;;;;5075339;28;20066;-65
2022/08/14 12:24:43;;;;;;;2.70;1.00;;;35.40;40.90;;;;;;5074733;28;20021;-65
2022/08/14 12:27:10;;;;;;;2.00;1.10;;;35.60;40.30;;;;;;5075068;28;20031;-65
2022/08/14 12:29:35;;;;;;;1.67;1.10;;;35.70;39.00;;;;;;5074764;28;20365;-65
2022/08/14 12:32:05;;;;;;;2.85;1.10;;;36.30;39.40;;;;;;5074097;28;20036;-65
2022/08/14 12:34:36;;;;;;;1.20;1.00;;;37.40;38.40;;;;;;5074071;28;20433;-65
2022/08/14 12:37:07;;;;;;;1.40;0.90;;;37.80;38.30;;;;;;5074053;28;20025;-65
2022/08/14 12:39:34;;;;;;;1.80;1.00;;;38.20;38.20;;;;;;5074368;28;20425;-65
2022/08/14 12:42:08;;;;;;;2.25;1.02;;;38.10;38.50;;;;;;5074589;28;20535;-65
2022/08/14 12:44:41;;;;;;;2.25;1.10;;;36.50;39.10;;;;;;5074724;28;20024;-65
2022/08/14 12:47:19;;;;;;;1.58;1.00;;;35.90;39.50;;;;;;5074084;28;20025;-65
2022/08/14 12:49:54;;;;;;;3.92;1.00;;;36.60;38.90;;;;;;5074351;28;20017;-64
2022/08/14 12:52:49;;;;;;;2.65;1.02;;;37.30;38.20;;;;;;5074142;28;20477;-65
2022/08/14 12:55:16;;;;;;;1.52;0.85;;;37.70;37.90;;;;;;5072478;28;20559;-65
2022/08/14 12:57:43;;;;;;;4.30;1.05;;;37.10;39.20;;;;;;5074128;28;20052;-65
2022/08/14 13:00:16;;;;;;;1.30;1.00;;;37.00;39.70;;;;;;5072435;28;20047;-65
2022/08/14 13:02:43;;;;;;;1.33;0.90;;;37.20;39.60;;;;;;5073690;28;20032;-65
2022/08/14 13:05:11;;;;;;;1.80;1.00;;;37.00;39.50;;;;;;5074065;28;20516;-65
2022/08/14 13:07:39;;;;;;;3.72;1.08;;;36.90;38.60;;;;;;5073740;28;20028;-65
2022/08/14 13:10:14;;;;;;;1.08;0.90;;;37.00;38.20;;;;;;5073607;28;20388;-66
2022/08/14 13:12:41;;;;;;;1.77;0.90;;;37.10;38.70;;;;;;5071907;28;20543;-65
2022/08/14 13:15:12;;;;;;;3.08;1.10;;;37.00;39.20;;;;;;5073566;28;20048;-65